Terminal Aerodrome Forecast
Issued by NWS

Home | Current Version | Previous Version | Text Only | Print | Product List | Glossary On
Versions: 1 2 3 4 5 6 7 8 9 10 11 12 13 14 15 16 17 18 19 20 21 22 23 24 25 26 27 28
000
FTUS46 KSEW 271400 AAA
TAFSEA
TAF AMD
KSEA 271403Z 2714/2818 19005KT P6SM OVC018
     FM272000 21005KT P6SM OVC022
     FM280200 18004KT P6SM OVC015=

USA.gov is the U.S. government's official web portal to all federal, state and local government web resources and services.